Tiempo atmosférico en la estación meteorológica de Madridejos, Toledo (690 m.)



Fecha
DESCASC
Temp. máxima en grados centígrados (hora)
DESCASC
Temp. mínima en grados centígrados (hora)
DESCASC
Temp. media en grados centígrados
DESCASC
Racha de viento máxima en m/sg (hora)
DESCASC
Velocidad máxima media en intervalos de 10 minutos(hora)
DESCASC
Precipitaciones diarias en mm
DESCASC
Precipitaciones de 00:00 a 06:00 en mm
DESCASC
Precipitaciones de 06:00 a 12:00 en mm
DESCASC
Precipitaciones de 12:00 a 18:00 en mm
DESCASC
Precipitaciones de 18:00 a 24:00 en mm
DESCASC
19-02-2019 14.7 (16:50) -1.8 (07:40) 6.4 8.61 (19:20) 3.89 (19:10) -- -- -- -- --
18-02-2019 14.9 (17:20) -0.4 (08:00) 7.2 10.56 (10:20) 5 (10:20) -- -- -- -- --
17-02-2019 17.7 (16:40) -3.1 (-00:0) 7.3 10.56 (16:20) 5 (01:20) -- -- -- -- --
16-02-2019 16.8 (16:50) 2.8 (00:00) 9.8 16.67 (18:40) 9.17 (18:20) -- -- -- -- --
15-02-2019 14.4 (17:40) -1.9 (-00:0) 6.2 8.61 (20:50) 5 (22:40) -- -- -- -- --
14-02-2019 15.1 (17:40) 1.6 (00:00) 8.4 13.33 (12:30) 7.5 (10:50) -- -- -- -- --
13-02-2019 15.4 (17:40) -2.4 (-00:0) 6.5 8.89 (16:30) 5.28 (19:40) -- -- -- -- --
12-02-2019 15.6 (17:20) -2.3 (-00:0) 6.7 10 (16:30) 4.17 (13:30) -- -- -- -- --
11-02-2019 13.9 (17:20) 5.3 (00:00) 9.6 9.72 (14:20) 5.83 (22:50) -- -- -- -- --
10-02-2019 12.5 (15:50) 1.2 (00:00) 6.9 12.78 (15:20) 8.61 (15:20) -- -- -- -- --
09-02-2019 16.5 (16:20) -2.3 (-00:0) 7.1 9.72 (16:30) 4.72 (16:30) -- -- -- -- --
08-02-2019 17.6 (16:00) -3.3 (-00:0) 7.2 10 (14:50) 5 (16:20) -- -- -- -- --
07-02-2019 16.4 (16:10) 0.1 (00:00) 8.2 7.5 (12:00) 3.61 (14:20) -- -- -- -- --
06-02-2019 18.2 (15:50) -2.5 (07:50) 7.9 6.39 (19:10) 3.06 (11:40) -- -- -- -- --
05-02-2019 15.3 (16:40) -3.6 (07:00) 5.9 6.67 (17:40) 3.33 (17:30) -- -- -- -- --
04-02-2019 11.6 (17:10) -6 (-00:0) 2.8 8.33 (16:00) 4.17 (02:40) -- -- -- -- --
03-02-2019 8.4 (16:00) -2.9 (-00:0) 2.7 15 (13:30) 7.22 (15:30) -- -- -- -- --
02-02-2019 -- (--) -- (--) -- -- (--) -- (--) -- -- -- -- --
01-02-2019 -- (--) -- (--) -- -- (--) -- (--) -- -- -- -- --
31-01-2019 14.2 (15:00) 7.6 (00:00) 10.9 23.06 (14:50) 14.44 (14:50) -- -- -- -- --
30-01-2019 10.2 (14:40) 2 (00:00) 6.1 11.94 (17:00) 7.22 (23:00) -- -- -- -- --
29-01-2019 11.3 (15:30) 0.3 (00:00) 5.8 18.33 (15:20) 11.94 (15:40) -- -- -- -- --
28-01-2019 13.6 (14:40) -2.1 (-00:0) 5.8 13.06 (17:00) 8.89 (17:00) -- -- -- -- --
27-01-2019 11.7 (15:40) 1.5 (00:00) 6.6 16.11 (16:50) 11.11 (13:50) -- -- -- -- --
26-01-2019 17.4 (16:30) -2.8 (-00:0) 7.3 8.06 (19:30) 3.89 (22:00) -- -- -- -- --
25-01-2019 15.3 (16:00) 2.4 (00:00) 8.9 11.67 (15:50) 7.22 (14:20) -- -- -- -- --
24-01-2019 15.9 (15:50) 4.9 (00:00) 10.4 16.67 (15:00) 10.56 (11:40) -- -- -- -- --

Gráficas

Temp. máximas Temp. mínimas Temp. medias Precipitaciones Rachas de viento máximas Velocidades máximas media en intervalos de 10 minutos

Datos horarios

Fecha y hora oficial Temperatura (ºC) Velocidad del viento (km/h) Dirección del viento Racha (km/h) Dirección de racha Precipitación (mm) Presión (hPa) Tendencia (hPa) Humedad (%)
2019-02-22 23:00:00 5.6 9 Sudoeste 11 Sudoeste 0 949 0.6 36
2019-02-22 22:00:00 7.4 6 Oeste 13 Noroeste 0 948.8 0.8 31
2019-02-22 21:00:00 10.3 3 Sudoeste 14 Este 0 948.7 0.8 27
2019-02-22 20:00:00 14.3 7 Este 18 Este 0 948.4 0.4 20
2019-02-22 19:00:00 17 7 Este 20 Norte 0 948 0 17
2019-02-22 18:00:00 18.7 10 Norte 22 Norte 0 947.9 -0.5 14
2019-02-22 17:00:00 19.3 10 Sudeste 20 Oeste 0 948 -1.1 14
2019-02-22 16:00:00 19.6 7 Sudoeste 17 Oeste 0 948 -1.9 13
2019-02-22 15:00:00 19 6 Noroeste 20 Sudeste 0 948.4 -2 16
2019-02-22 14:00:00 17.5 6 Sudeste 17 Sur 0 949.1 -1.2 24
2019-02-22 13:00:00 14.7 6 Sudeste 27 Este 0 949.9 -0.4 30
2019-02-22 12:00:00 11.4 12 Este 24 Este 0 950.4 0.1 40
2019-02-22 11:00:00 9.1 5 Este 17 Este 0 950.3 0.5 49
2019-02-22 10:00:00 3.7 0 Calma 13 Oeste 0 950.3 0.4 67
2019-02-22 09:00:00 -2.9 3 Oeste 9 Este 0 950.3 0.7 72
2019-02-22 08:00:00 -3.4 4 Oeste 18 Oeste 0 949.8 0.5 70
2019-02-22 07:00:00 -3 7 Oeste 10 Este 0 949.9 0.4 69
2019-02-22 06:00:00 -1.9 0 Calma 13 Sur 0 949.6 -0.1 68
2019-02-22 05:00:00 -1 4 Sudeste 18 Este 0 949.3 -0.3 66
2019-02-22 04:00:00 -0.1 4 Sudeste 17 Sudoeste 0 949.5 0.3 62
2019-02-22 03:00:00 0.6 4 Sudoeste 17 Sudoeste 0 949.7 0.7 60
2019-02-22 02:00:00 0.9 4 Noroeste 17 Nordeste 0 949.6 0.8 59
2019-02-22 01:00:00 4.3 5 Nordeste 17 Nordeste 0 949.2 0.8 51
2019-02-22 00:00:00 5.3 6 Este 18 Este 0 949 1.2 52
2019-02-21 23:00:00 7 4 Sudeste 21 Este 0 948.8 1.9 45
2019-02-21 22:00:00 8.1 7 Nordeste 10 Nordeste 0 948.4 2 42
2019-02-21 21:00:00 9.3 6 Nordeste 30 Este 0 947.8 1.9 37
2019-02-21 20:00:00 11 12 Este 31 Este 0 946.9 0.9 32
2019-02-21 19:00:00 14.7 10 Este 23 Sudeste 0 946.4 0.6 24
2019-02-21 18:00:00 17 11 Este 20 Este 0 945.9 0 20
2019-02-21 17:00:00 17.7 8 Sudeste 24 Sudeste 0 946 -0.5 21
2019-02-21 16:00:00 16.8 11 Sudeste 37 Este 0 945.8 -1.3 22
2019-02-21 15:00:00 16.3 12 Sudeste 38 Este 0 945.9 -1 27
2019-02-21 14:00:00 14.1 13 Sudeste 33 Este 0 946.5 -0.2 41
2019-02-21 13:00:00 12.4 8 Sudeste 24 Sudeste 0 947.1 0.8 49
2019-02-21 12:00:00 9.1 8 Este 21 Este 0 946.9 1.1 60
2019-02-21 11:00:00 7 2 Sur 15 Sur 0 946.7 1.4 69
2019-02-21 10:00:00 3.7 5 Sudeste 12 Sur 0 946.3 1.2 81
2019-02-21 09:00:00 -0.4 3 Este 13 Este 0 945.8 0.8 87
2019-02-21 08:00:00 -2.6 0 Calma 7 Este 0 945.3 0.4 82
2019-02-21 07:00:00 -2.1 2 Nordeste 13 Nordeste 0 945.1 0.1 81
2019-02-21 06:00:00 -0.9 4 Este 14 Nordeste 0 945 0.2 78
2019-02-21 05:00:00 0.1 2 Sudeste 15 Este 0 944.9 0.2 76
2019-02-21 04:00:00 0.2 3 Sudeste 16 Este 0 945 0.6 76
2019-02-21 03:00:00 1.2 4 Sur 17 Este 0 944.8 0.6 75
2019-02-21 02:00:00 2.1 5 Nordeste 18 Nordeste 0 944.7 0.7 72
2019-02-21 01:00:00 2.2 5 Noroeste 18 Oeste 0 944.4 0.9 70
2019-02-21 00:00:00 3.3 6 Oeste 20 Oeste 0 944.2 1.2 65
2019-02-20 23:00:00 5.5 2 Sudoeste 18 Sudoeste 0 944 1.4 60
2019-02-20 22:00:00 6.4 4 Noroeste 20 Oeste 0 943.5 1.4 57
2019-02-20 21:00:00 8.9 4 Noroeste 12 Oeste 0 943 1.1 49
2019-02-20 20:00:00 11.9 7 Norte 16 Nordeste 0 942.6 0.8 44
2019-02-20 19:00:00 13.8 4 Norte 16 Nordeste 0 942.1 0.2 39
2019-02-20 18:00:00 14.8 5 Nordeste 13 Oeste 0 941.9 -0.3 37
2019-02-20 17:00:00 15.6 4 Noroeste 16 Nordeste 0 941.8 -0.8 36
2019-02-20 16:00:00 15.1 5 Noroeste 28 Este 0 941.9 -1.3 38
2019-02-20 15:00:00 14.3 5 Sudeste 28 Este 0 942.2 -1 46
2019-02-20 14:00:00 11.9 6 Este 22 Norte 0 942.6 -0.3 57
2019-02-20 13:00:00 9.7 9 Sudeste 20 Este 0 943.2 0.6 67
2019-02-20 12:00:00 5.9 7 Sudeste 17 Sur 0 943.2 1.3 89
2019-02-20 11:00:00 3.3 8 Sudeste 15 Sudeste 0 942.9 1.9 92
2019-02-20 10:00:00 2 7 Sudeste 15 Este 0 942.6 1.9 91
2019-02-20 09:00:00 0.9 5 Sudeste 10 Este 0 941.9 1.5 89
2019-02-20 08:00:00 -1.3 2 Sudoeste 11 Sur 0 941 0.4 85
2019-02-20 07:00:00 -0.5 2 Sudoeste 12 Este 0 940.7 0.2 84
2019-02-20 06:00:00 1.2 3 Este 14 Nordeste 0 940.4 -0.1 85
2019-02-20 05:00:00 0.4 8 Oeste 19 Oeste 0 940.6 0.1 80
2019-02-20 04:00:00 2.3 11 Este 14 Este 0 940.5 0.2 80
2019-02-20 03:00:00 3.2 10 Este 14 Este 0 940.5 0.5 73
2019-02-20 02:00:00 3.5 8 Este 12 Este 0 940.5 0.7 72
2019-02-20 01:00:00 4 8 Nordeste 18 Este 0 940.3 1.1 70
2019-02-20 00:00:00 4 8 Nordeste 22 Oeste 0 940 1 73
2019-02-19 23:00:00 5.1 6 Oeste 21 Oeste 0 939.8 1.1 70
2019-02-19 22:00:00 6.6 4 Sudoeste 10 Sudoeste 0 939.2 1.2 67
2019-02-19 21:00:00 8.5 6 Sudoeste 21 Sudoeste 0 939 1.6 61
2019-02-19 20:00:00 9.2 9 Oeste 31 Oeste 0 938.7 1.2 60
2019-02-19 19:00:00 12 6 Noroeste 16 Nordeste 0 938 0.2 43
2019-02-19 18:00:00 14.4 3 Este 15 Oeste 0 937.4 -0.8 37
2019-02-19 17:00:00 14.5 5 Nordeste 18 Nordeste 0 937.5 -1.3 38
2019-02-19 16:00:00 14.4 4 Este 29 Nordeste 0 937.8 -1.7 39
2019-02-19 15:00:00 13 6 Noroeste 21 Nordeste 0 938.2 -1.6 44
2019-02-19 14:00:00 11.6 4 Nordeste 21 Norte 0 938.8 -1 56
2019-02-19 13:00:00 8.4 5 Este 19 Norte 0 939.5 -0.3 73
2019-02-19 12:00:00 4.5 5 Este 15 Este 0 939.8 0.8 90
2019-02-19 11:00:00 2.8 4 Sur 13 Sudeste 0 939.8 1.4 92
2019-02-19 10:00:00 2.1 5 Sur 15 Sudeste 0 939.8 1.5 92
2019-02-19 09:00:00 1.6 7 Este 12 Este 0 939 0.5 91
2019-02-19 08:00:00 -1.5 0 Calma 15 Este 0 938.4 0.1 89
2019-02-19 07:00:00 -1.2 0 Calma 12 Nordeste 0 938.3 -0.2 83
2019-02-19 06:00:00 -1.6 9 Oeste 12 Sudoeste 0 938.5 0 82
2019-02-19 05:00:00 0.2 0 Calma 15 Este 0 938.3 -0.1 81
2019-02-19 04:00:00 1.9 4 Este 15 Este 0 938.5 0.4 84
2019-02-19 03:00:00 2 11 Este 14 Este 0 938.5 0.7 84
2019-02-19 02:00:00 3.1 10 Nordeste 19 Nordeste 0 938.4 0.8 82
2019-02-19 01:00:00 2.9 8 Nordeste 19 Nordeste 0 938.1 0.8 74
2019-02-19 00:00:00 4.1 5 Norte 19 Nordeste 0 937.8 0.9 63
2019-02-18 23:00:00 5.1 4 Nordeste 18 Este 0 937.6 0.8 63
2019-02-18 22:00:00 6.9 9 Este 22 Este 0 937.3 1.1 57
2019-02-18 21:00:00 8.2 12 Este 26 Este 0 936.9 1 52
2019-02-18 20:00:00 9.8 11 Este 26 Este 0 936.8 0.8 46
2019-02-18 19:00:00 12.9 8 Nordeste 13 Nordeste 0 936.2 0.1 37
2019-02-18 18:00:00 14.3 4 Nordeste 13 Sur 0 935.9 -0.7 32
2019-02-18 17:00:00 14.7 6 Sudeste 26 Este 0 936 -1.2 33
2019-02-18 16:00:00 14.4 8 Este 32 Este 0 936.1 -1.9 35
2019-02-18 15:00:00 14.2 9 Sudeste 30 Este 0 936.6 -1.8 38
2019-02-18 14:00:00 12.3 11 Sudeste 32 Este 0 937.2 -1.2 49
2019-02-18 13:00:00 10.6 15 Este 30 Este 0 938 -0.3 58
2019-02-18 12:00:00 8.4 14 Este 26 Este 0 938.4 0.3 68
2019-02-18 11:00:00 6.7 13 Este 38 Este 0 938.4 0.8 76
2019-02-18 10:00:00 4.7 16 Este 33 Este 0 938.3 0.5 87
2019-02-18 09:00:00 1.8 8 Este 16 Este 0 938.1 0.3 90
2019-02-18 08:00:00 0.2 5 Sudeste 10 Este 0 937.6 -0.3 90
2019-02-18 07:00:00 1.2 9 Sudeste 15 Este 0 937.8 -0.6 90
2019-02-18 06:00:00 1.5 0 Calma 11 Sur 0 937.8 -0.9 86
2019-02-18 05:00:00 2.6 4 Sudeste 12 Sur 0 937.9 -1 87
2019-02-18 04:00:00 2.7 5 Sudeste 15 Sudeste 0 938.4 -0.5 87
2019-02-18 03:00:00 2.7 9 Este 14 Sudeste 0 938.7 -0.5 84
2019-02-18 02:00:00 1.8 11 Este 13 Este 0 938.9 -0.3 78
2019-02-18 01:00:00 3.5 8 Este 17 Este 0 938.9 -0.3 75
2019-02-18 00:00:00 4.5 8 Este 18 Este 0 939.2 0.2 71
2019-02-17 23:00:00 5.9 12 Este 20 Este 0 939.2 0.4 65
2019-02-17 22:00:00 7.5 5 Este 21 Este 0 939.2 0.7 59
2019-02-17 21:00:00 8.9 6 Este 30 Este 0 939 0.5 51
2019-02-17 20:00:00 10.9 14 Este 32 Este 0 938.8 -0.2 33
2019-02-17 19:00:00 14.8 5 Sudeste 20 Sudeste 0 938.5 -0.9 19
2019-02-17 18:00:00 17 8 Sur 24 Sudeste 0 938.5 -1.7 15
2019-02-17 17:00:00 17.5 11 Sudeste 38 Sur 0 939 -2.1 14
2019-02-17 16:00:00 17.1 15 Sudeste 35 Este 0 939.4 -2.7 14
2019-02-17 15:00:00 16.7 8 Sudeste 36 Este 0 940.2 -2.4 16
2019-02-17 14:00:00 14.8 8 Sudeste 27 Este 0 941.1 -1.8 21
2019-02-17 13:00:00 12.5 11 Sudeste 27 Este 0 942.1 -1 27
2019-02-17 12:00:00 9.5 11 Sudeste 23 Sudeste 0 942.6 -0.4 32
2019-02-17 11:00:00 6.1 8 Sudeste 17 Sur 0 942.9 0.3 43
2019-02-17 10:00:00 3.4 4 Sudeste 10 Nordeste 0 943.1 0.5 50
2019-02-17 09:00:00 -1 4 Sudeste 14 Nordeste 0 943 0.4 68
2019-02-17 08:00:00 -1.9 2 Norte 14 Nordeste 0 942.6 -0.1 67
2019-02-17 07:00:00 -0.2 6 Sudeste 16 Sudeste 0 942.6 -0.2 65
2019-02-17 06:00:00 0.2 6 Sudeste 12 Este 0 942.6 -0.5 74
2019-02-17 05:00:00 -0.4 2 Sudoeste 13 Nordeste 0 942.7 -0.6 71
2019-02-17 04:00:00 1.2 3 Nordeste 15 Nordeste 0 942.8 -0.8 69
2019-02-17 03:00:00 3.1 7 Sudeste 20 Sudeste 0 943.1 -0.5 64
2019-02-17 02:00:00 3.9 13 Sudeste 28 Sudeste 0 943.3 -0.3 61
2019-02-17 01:00:00 5.1 10 Sudeste 22 Sudeste 0 943.6 0.3 56
2019-02-17 00:00:00 5.7 8 Sudeste 22 Este 0 943.6 0.9 56
2019-02-16 23:00:00 6.8 10 Este 19 Este 0 943.6 1.5 53
2019-02-16 22:00:00 8.2 8 Este 35 Este 0 943.3 1.7 44
2019-02-16 21:00:00 10.5 22 Este 45 Este 0 942.7 1.2 36
2019-02-16 20:00:00 11.7 28 Este 46 Este 0 942.1 0.3 32
2019-02-16 19:00:00 13.3 30 Este 60 Este 0 941.6 -0.7 30
2019-02-16 18:00:00 15.6 30 Este 46 Este 0 941.5 -1.6 28
2019-02-16 17:00:00 16.7 20 Sudeste 44 Este 0 941.8 -2.1 26
2019-02-16 16:00:00 16.2 17 Este 39 Este 0 942.3 -2.4 29
2019-02-16 15:00:00 14.8 19 Este 41 Este 0 943.1 -2.2 33
2019-02-16 14:00:00 13.3 18 Este 37 Este 0 943.9 -1.6 39
2019-02-16 13:00:00 11.3 19 Este 38 Sudeste 0 944.7 -0.5 48
2019-02-16 12:00:00 8.8 20 Este 42 Este 0 945.3 0.6 61
2019-02-16 11:00:00 6.4 17 Este 39 Este 0 945.5 1.2 76
2019-02-16 10:00:00 4.2 14 Este 26 Este 0 945.2 1.2 86
2019-02-16 09:00:00 3.8 12 Este 22 Este 0 944.7 1 89
2019-02-16 08:00:00 3.2 6 Este 16 Este 0 944.3 0.7 89
2019-02-16 07:00:00 3.4 3 Sudeste 14 Este 0 944 0.1 89
2019-02-16 06:00:00 3.2 6 Sudeste 13 Sudeste 0 943.7 -0.2 89
2019-02-16 05:00:00 3.6 8 Este 19 Este 0 943.6 -0.4 89
2019-02-16 04:00:00 3.5 14 Este 21 Sudeste 0 943.9 -0.3 89
2019-02-16 03:00:00 3.5 12 Este 20 Este 0 943.9 -0.3 86
2019-02-16 02:00:00 4.5 14 Este 22 Este 0 944 -0.2 83
2019-02-16 01:00:00 4.5 14 Este 18 Este 0 944.2 0.2 79
2019-02-16 00:00:00 5 7 Este 18 Este 0 944.2 0.2 75
2019-02-15 23:00:00 6.2 13 Este 24 Este 0 944.2 0.3 69
2019-02-15 22:00:00 7.5 13 Este 27 Este 0 944 0.4 59
2019-02-15 21:00:00 8.2 10 Este 31 Este 0 944 0.5 60
2019-02-15 20:00:00 9.7 6 Nordeste 14 Este 0 943.9 0 58
2019-02-15 19:00:00 12.3 8 Este 16 Nordeste 0 943.6 -0.7 46
2019-02-15 18:00:00 14.3 8 Nordeste 19 Nordeste 0 943.5 -1.5 42
2019-02-15 17:00:00 13.8 8 Nordeste 29 Este 0 943.9 -2 43
2019-02-15 16:00:00 13.2 8 Nordeste 24 Nordeste 0 944.3 -2.6 49
2019-02-15 15:00:00 11.7 7 Nordeste 30 Nordeste 0 945 -2.3 55
2019-02-15 14:00:00 9.9 8 Nordeste 21 Este 0 945.9 -1.4 62
2019-02-15 13:00:00 8 9 Nordeste 25 Sudeste 0 946.9 -0.6 71
2019-02-15 12:00:00 5.8 10 Este 21 Este 0 947.3 0.2 81
2019-02-15 11:00:00 4.7 12 Este 19 Este 0 947.3 0.6 87
2019-02-15 10:00:00 4 11 Este 20 Este 0 947.5 0.9 89
2019-02-15 09:00:00 3.9 10 Este 21 Este 0 947.1 0.3 90
2019-02-15 08:00:00 3.9 10 Este 17 Este 0 946.7 -0.1 90
2019-02-15 07:00:00 3.9 11 Este 18 Este 0 946.6 -0.3 91
2019-02-15 06:00:00 3.7 8 Este 19 Este 0 946.8 0 91
2019-02-15 05:00:00 3.1 11 Este 15 Este 0 946.8 -0.2 90
2019-02-15 04:00:00 -1.7 3 Norte 16 Nordeste 0 946.9 -0.2 84
2019-02-15 03:00:00 1 3 Nordeste 14 Nordeste 0 946.8 -0.4 84
2019-02-15 02:00:00 2.7 9 Este 13 Este 0 947 -0.1 83
2019-02-15 01:00:00 4.3 9 Este 19 Este 0 947.1 0 77
2019-02-15 00:00:00 4.8 9 Este 18 Este 0 947.2 0.4 71
2019-02-14 23:00:00 5.8 9 Este 19 Este 0 947.1 0.5 67
2019-02-14 22:00:00 6.3 7 Este 24 Este 0 947.1 0.8 61
2019-02-14 21:00:00 6.8 8 Este 30 Este 0 946.8 0.7 55
2019-02-14 20:00:00 8.7 11 Este 29 Este 0 946.6 0.3 49
2019-02-14 19:00:00 12.3 11 Este 32 Este 0 946.3 -0.4 40
2019-02-14 18:00:00 14.8 10 Este 33 Este 0 946.1 -1.2 33
2019-02-14 17:00:00 14.7 13 Este 37 Este 0 946.3 -1.8 34
2019-02-14 16:00:00 14.1 14 Sudeste 34 Este 0 946.7 -2.1 37
2019-02-14 15:00:00 13 17 Este 35 Este 0 947.3 -2 40
2019-02-14 14:00:00 12 15 Sudeste 37 Este 0 948.1 -1.3 44
2019-02-14 13:00:00 10.6 23 Este 48 Este 0 948.8 -0.6 49
2019-02-14 12:00:00 9 22 Este 41 Este 0 949.3 0.1 57
2019-02-14 11:00:00 7.1 -- -- -- -- 0 949.4 0.6 65
2019-02-14 10:00:00 5 20 Este 39 Este 0 949.4 0.8 75
2019-02-14 09:00:00 2.4 13 Este 20 Este 0 949.2 0.9 84
2019-02-14 08:00:00 1.8 11 Este 17 Sudeste 0 948.8 0.7 85
2019-02-14 07:00:00 2.4 10 Este 23 Sudeste 0 948.6 0.4 83
2019-02-14 06:00:00 2.7 12 Sudeste 22 Sudeste 0 948.3 0.3 85
2019-02-14 05:00:00 2 12 Sudeste 20 Sudeste 0 948.1 0.2 83
2019-02-14 04:00:00 1.9 7 Sudeste 14 Sudeste 0 948.2 0.4 78
2019-02-14 03:00:00 2.1 6 Este 12 Este 0 948 0.1 73
2019-02-14 02:00:00 2.5 8 Este 13 Este 0 947.9 0.1 67
2019-02-14 01:00:00 3.1 9 Este 14 Este 0 947.8 0.3 59
2019-02-14 00:00:00 4.1 11 Este 18 Este 0 947.9 0.7 50
2019-02-13 23:00:00 5 6 Este 17 Este 0 947.8 0.8 41
2019-02-13 22:00:00 6.1 5 Nordeste 25 Este 0 947.5 1.1 33
2019-02-13 21:00:00 8 12 Este 31 Este 0 947.2 0.9 28
2019-02-13 20:00:00 9.5 16 Este 31 Este 0 947 0.4 24
2019-02-13 19:00:00 13.4 6 Este 18 Este 0 946.4 -0.4 24
2019-02-13 18:00:00 15.2 13 Este 30 Este 0 946.3 -0.9 29
2019-02-13 17:00:00 15.2 10 Este 32 Este 0 946.6 -1.4 38
2019-02-13 16:00:00 14.3 8 Este 32 Este 0 946.8 -2 41
2019-02-13 15:00:00 12.7 10 Este 29 Este 0 947.2 -1.8 52
2019-02-13 14:00:00 10.6 5 Nordeste 21 Este 0 948 -1.1 65
2019-02-13 13:00:00 6.3 5 Nordeste 17 Este 0 948.8 0 89
2019-02-13 12:00:00 3.6 5 Sudeste 13 Sur 0 949 0.5 92
2019-02-13 11:00:00 2.1 3 Sudeste 14 Nordeste 0 949.1 1.1 92
2019-02-13 10:00:00 1.2 5 Sudeste 11 Este 0 948.8 0.9 91
2019-02-13 09:00:00 0.2 3 Sudeste 14 Este 0 948.5 0.7 90
2019-02-13 08:00:00 -1.6 2 Sur 13 Sur 0 948 0.1 85
2019-02-13 07:00:00 -2.2 5 Oeste 15 Oeste 0 947.9 -0.2 83
2019-02-13 06:00:00 -1.6 3 Noroeste 13 Oeste 0 947.8 -0.4 81
2019-02-13 05:00:00 -1 0 Calma 13 Nordeste 0 947.9 -0.6 77
2019-02-13 04:00:00 0.3 4 Sudeste 15 Este 0 948.1 -0.4 77
2019-02-13 03:00:00 1 0 Calma 15 Nordeste 0 948.2 -0.4 75
2019-02-13 02:00:00 1 6 Oeste 19 Nordeste 0 948.5 -0.4 72
2019-02-13 01:00:00 4.5 7 Nordeste 19 Nordeste 0 948.5 -0.2 72
2019-02-13 00:00:00 3.3 5 Nordeste 17 Nordeste 0 948.6 0.3 66
2019-02-12 23:00:00 6.1 4 Este 20 Este 0 948.9 0.7 62
2019-02-12 22:00:00 6.9 2 Este 21 Este 0 948.7 0.9 59
2019-02-12 21:00:00 8.3 4 Oeste 9 Sudoeste 0 948.3 0.8 54
2019-02-12 20:00:00 10.7 3 Sudeste 14 Sur 0 948.2 0.8 47
2019-02-12 19:00:00 13.4 3 Sudeste 17 Sur 0 947.8 0.3 40
2019-02-12 18:00:00 15 6 Sudeste 20 Sudeste 0 947.5 -0.4 36
2019-02-12 17:00:00 14.9 7 Sudeste 36 Este 0 947.4 -1.1 32
2019-02-12 16:00:00 14.1 10 Este -- -- 0 947.5 -1.9 34
2019-02-12 15:00:00 13.2 9 Sudeste -- -- 0 947.9 -1.7 43
2019-02-12 14:00:00 11.9 8 Este 31 Este 0 948.5 -0.9 55
2019-02-12 13:00:00 9.2 10 Este 23 Este 0 949.4 0.3 55
2019-02-12 12:00:00 7.8 9 Este 22 Este 0 949.6 0.9 59
2019-02-12 11:00:00 5.5 6 Este 17 Este 0 949.4 1.1 59
2019-02-12 10:00:00 1.9 4 Oeste 17 Oeste 0 949.1 1.1 76
2019-02-12 09:00:00 -1.6 3 Oeste 9 Norte 0 948.7 0.7 80
2019-02-12 08:00:00 -1.7 5 Noroeste 11 Noroeste 0 948.3 0.4 81
2019-02-12 07:00:00 -1.9 8 Oeste 13 Norte 0 948 -0.3 78
2019-02-12 06:00:00 -1.5 8 Noroeste 14 Norte 0 948 -0.4 76
2019-02-12 05:00:00 -0.5 9 Noroeste 13 Norte 0 947.9 -0.5 76
2019-02-12 04:00:00 0.1 6 Oeste 13 Noroeste 0 948.3 0 71
2019-02-12 03:00:00 0.3 7 Noroeste 12 Oeste 0 948.4 0.5 67
2019-02-12 02:00:00 1.5 6 Oeste 18 Nordeste 0 948.4 0.8 65
2019-02-12 01:00:00 4.2 5 Nordeste 22 Nordeste 0 948.3 1.1 57
2019-02-12 00:00:00 5.9 14 Nordeste 24 Nordeste 0 947.9 1.3 52
2019-02-11 23:00:00 6.2 20 Nordeste 26 Nordeste 0 947.6 1.4 51
2019-02-11 22:00:00 5.4 6 Norte 10 Norte 0 947.2 1.6 45
2019-02-11 21:00:00 6.7 5 Noroeste 13 Noroeste 0 946.6 1.1 37
2019-02-11 20:00:00 9 6 Noroeste 12 Oeste 0 946.2 0.7 32
2019-02-11 19:00:00 12.2 6 Norte 28 Nordeste 0 945.6 0.4 30
2019-02-11 18:00:00 13.3 6 Norte 29 Nordeste 0 945.5 0.1 28
2019-02-11 17:00:00 13.6 8 Norte 30 Nordeste 0 945.5 -0.5 30
2019-02-11 16:00:00 13.3 7 Nordeste 30 Nordeste 0 945.2 -1.4 31
2019-02-11 15:00:00 13.2 8 Norte 35 Norte 0 945.4 -1.2 36
2019-02-11 14:00:00 12.3 9 Norte 32 Norte 0 946 -0.3 45
2019-02-11 13:00:00 11.3 10 Norte 33 Norte 0 946.6 0.9 55
2019-02-11 12:00:00 9.9 13 Norte 32 Norte 0 946.6 1.5 58
2019-02-11 11:00:00 9.8 10 Noroeste 25 Oeste 0 946.3 1.8 54
2019-02-11 10:00:00 8.3 13 Oeste 21 Oeste 0 945.7 1.5 64
2019-02-11 09:00:00 7 8 Oeste 17 Noroeste 0 945.1 1.4 70
2019-02-11 08:00:00 7.7 10 Noroeste 22 Noroeste 0 944.5 1.1 70
2019-02-11 07:00:00 8.6 12 Noroeste 21 Noroeste 0 944.2 0.7 77
2019-02-11 06:00:00 8.9 4 Oeste 11 Norte 0 943.7 0.1 86
2019-02-11 05:00:00 9 3 Oeste 17 Oeste 0 943.4 0 86
2019-02-11 04:00:00 9.1 7 Sudoeste 18 Oeste 0 943.5 0.3 87
2019-02-11 03:00:00 9.3 10 Sudoeste 25 Sudoeste 0 943.6 0 86
2019-02-11 02:00:00 9 12 Oeste 24 Sudoeste 0 943.4 0.4 86
2019-02-11 01:00:00 9.4 17 Sudoeste 29 Sudoeste 0 943.2 0.1 85
2019-02-11 00:00:00 9.6 21 Sudoeste 40 Sudoeste 0 943.6 0.6 83
2019-02-10 23:00:00 9.6 27 Sudoeste 41 Sudoeste 0 943 -0.1 80
2019-02-10 22:00:00 9.7 21 Oeste 34 Sudoeste 0 943.1 0.4 79
2019-02-10 21:00:00 9.4 13 Sudoeste 28 Sudoeste 0 943 0.4 77
2019-02-10 20:00:00 10.1 18 Sudoeste 39 Sudoeste 0 943.1 0.7 73
2019-02-10 19:00:00 10.6 23 Sudoeste 36 Sudoeste 0 942.7 0.6 70
2019-02-10 18:00:00 11.2 22 Sudoeste 39 Oeste 0 942.6 0.4 66
2019-02-10 17:00:00 11.9 17 Sudoeste 40 Sudoeste 0 942.4 -0.2 62
2019-02-10 16:00:00 12.3 22 Oeste 46 Oeste 0 942.1 -1.2 60
2019-02-10 15:00:00 11.9 26 Oeste 39 Oeste 0 942.2 -0.9 60
2019-02-10 14:00:00 11.7 21 Oeste 43 Oeste 0 942.6 -0.4 61
2019-02-10 13:00:00 11.2 18 Sudoeste 42 Sudoeste 0 943.3 0.4 63
2019-02-10 12:00:00 10.5 21 Sudoeste 39 Sudoeste 0 943.1 0.8 64
2019-02-10 11:00:00 8.6 20 Sudoeste 34 Sudoeste 0 943 1.3 71
2019-02-10 10:00:00 7 21 Sudoeste 29 Sudoeste 0 942.9 1.6 78
2019-02-10 09:00:00 4.7 10 Sur 22 Sur 0 942.3 1.4 86
2019-02-10 08:00:00 3.9 14 Sudoeste 18 Sudoeste 0 941.7 0.9 84
2019-02-10 07:00:00 3.7 11 Sudoeste 19 Sudoeste 0 941.3 0.1 83
2019-02-10 06:00:00 3 8 Sudoeste 18 Sudoeste 0 940.9 -0.2 79
2019-02-10 05:00:00 1.3 6 Sudoeste 17 Nordeste 0 940.8 -0.8 79
2019-02-10 04:00:00 2.6 4 Norte 17 Nordeste 0 941.2 -0.2 76
2019-02-10 03:00:00 3.1 3 Este 19 Nordeste 0 941.1 -0.5 76
2019-02-10 02:00:00 3.2 4 Este 21 Sudoeste 0 941.6 -0.1 76
2019-02-10 01:00:00 3.6 7 Sur 20 Sur 0 941.4 -0.2 73
2019-02-10 00:00:00 4.5 6 Sudoeste 18 Oeste 0 941.6 0.5 74
2019-02-09 23:00:00 6.6 5 Sudoeste 7 Sudoeste 0 941.7 1 70
2019-02-09 22:00:00 6.2 5 Noroeste 22 Sur 0 941.6 1.5 68
2019-02-09 21:00:00 8 8 Sudoeste 23 Sur 0 941.1 1 61
2019-02-09 20:00:00 10 12 Sudoeste 21 Sudoeste 0 940.7 0.5 54
2019-02-09 19:00:00 12.6 10 Sur 24 Sudoeste 0 940.1 -0.4 44
2019-02-09 18:00:00 14.7 15 Sudoeste 34 Sudoeste 0 940.1 -0.8 37
2019-02-09 17:00:00 16.2 14 Sudoeste 35 Sudoeste 0 940.2 -1.4 29
2019-02-09 16:00:00 16.1 15 Sudoeste 33 Sudoeste 0 940.5 -1.8 31
2019-02-09 15:00:00 15.4 12 Sudoeste 34 Sur 0 940.9 -1.7 40
2019-02-09 14:00:00 14.6 12 Sudoeste 33 Oeste 0 941.6 -1 40
2019-02-09 13:00:00 13.6 6 Sur 25 Sur 0 942.3 -0.2 49
2019-02-09 12:00:00 11.7 6 Sur 24 Sur 0 942.6 0.5 55
2019-02-09 11:00:00 8.6 8 Sur 21 Sur 0 942.6 1 63
2019-02-09 10:00:00 4 0 Calma 13 Nordeste 0 942.5 1 78
2019-02-09 09:00:00 -1.3 2 Nordeste 11 Oeste 0 942.1 0.7 85
2019-02-09 08:00:00 -2 2 Oeste 20 Norte 0 941.6 0 82
2019-02-09 07:00:00 -1.2 0 Calma 13 Oeste 0 941.5 -0.4 84
2019-02-09 06:00:00 -0.7 3 Sur 13 Nordeste 0 941.4 -0.3 81
2019-02-09 05:00:00 0.1 8 Sudoeste 11 Sudoeste 0 941.6 0.1 82
2019-02-09 04:00:00 -0.1 6 Oeste 13 Noroeste 0 941.9 0.2 79
2019-02-09 03:00:00 0.2 8 Noroeste 21 Sur 0 941.7 -0.4 76
2019-02-09 02:00:00 3.6 8 Sur 21 Sudoeste 0 941.5 -0.4 76
2019-02-09 01:00:00 4.3 6 Sudoeste 8 Noroeste 0 941.7 0.1 71
2019-02-09 00:00:00 4 5 Noroeste 9 Oeste 0 942.1 1.2 67
2019-02-08 23:00:00 4.8 9 Noroeste 17 Oeste 0 941.9 1.4 68
2019-02-08 22:00:00 6.8 9 Oeste 19 Noroeste 0 941.6 1.7 65
2019-02-08 21:00:00 8 3 Noroeste 27 Oeste 0 940.9 0.9 58
2019-02-08 20:00:00 9.8 6 Oeste 15 Sudoeste 0 940.5 0.4 52
2019-02-08 19:00:00 13 11 Sudoeste 26 Sudoeste 0 939.9 -0.3 41
2019-02-08 18:00:00 16 17 Sudoeste 26 Sudoeste 0 940 -0.5 33
2019-02-08 17:00:00 17.2 15 Sudoeste 30 Oeste 0 940.1 -1.2 29
2019-02-08 16:00:00 17.4 12 Sudoeste 24 Sudoeste 0 940.2 -1.8 29
2019-02-08 15:00:00 16.9 15 Oeste 36 Sur 0 940.5 -1.8 31
2019-02-08 14:00:00 15.6 4 Sudeste 12 Sudeste 0 941.3 -1 36
2019-02-08 13:00:00 14.1 4 Sudeste 18 Este 0 942 -0.3 40
2019-02-08 12:00:00 10.9 11 Este 20 Sur 0 942.3 0.2 50
2019-02-08 11:00:00 6.4 7 Sudeste 15 Sur 0 942.3 0.4 61
2019-02-08 10:00:00 4.2 0 Calma 12 Nordeste 0 942.3 0.5 73
2019-02-08 09:00:00 -1.5 2 Sur 7 Sudeste 0 942.1 0.1 83
2019-02-08 08:00:00 -2.8 2 Sur 9 Este 0 941.9 0 82
2019-02-08 07:00:00 -2.3 3 Sur 10 Este 0 941.8 -0.3 80
2019-02-08 06:00:00 -1.7 2 Sur 10 Este 0 942 -0.5 79
2019-02-08 05:00:00 -1.9 4 Oeste 10 Oeste 0 941.9 -0.8 79
2019-02-08 04:00:00 -1.5 6 Noroeste 15 Oeste 0 942.1 -0.7 76
2019-02-08 03:00:00 -0.4 4 Norte 17 Sudoeste 0 942.5 -0.1 72
2019-02-08 02:00:00 0.5 6 Sur 18 Sudoeste 0 942.7 0.1 70
2019-02-08 01:00:00 1.5 4 Noroeste 20 Sudoeste 0 942.8 0.8 68
2019-02-08 00:00:00 2.4 6 Oeste 10 Sudoeste 0 942.6 0.8 65
2019-02-07 23:00:00 2.9 8 Oeste 19 Oeste 0 942.6 0.9 62
2019-02-07 22:00:00 5 8 Sudoeste 10 Sudoeste 0 942 0.7 54
2019-02-07 21:00:00 8.8 0 Calma 7 Nordeste 0 941.8 0.8 45
2019-02-07 20:00:00 10.1 5 Nordeste 19 Este 0 941.7 0.4 38
2019-02-07 19:00:00 13.1 6 Este 13 Oeste 0 941.3 0.1 31
2019-02-07 18:00:00 15.1 9 Norte 21 Norte 0 941 -0.7 26
2019-02-07 17:00:00 15.6 8 Norte 22 Norte 0 941.3 -0.9 24
2019-02-07 16:00:00 16.1 8 Oeste 22 Norte 0 941.2 -1.7 27
2019-02-07 15:00:00 15.5 6 Noroeste 24 Noroeste 0 941.7 -1.3 33
2019-02-07 14:00:00 14.4 7 Norte 22 Norte 0 942.2 -0.8 39
2019-02-07 13:00:00 14 9 Noroeste 21 Noroeste 0 942.9 0 41
2019-02-07 12:00:00 12.1 10 Noroeste 27 Oeste 0 943 0.5 54
2019-02-07 11:00:00 9 4 Oeste 18 Oeste 0 943 1 65
2019-02-07 10:00:00 3.9 5 Norte 16 Nordeste 0 942.9 1 82
2019-02-07 09:00:00 0.2 2 Norte 14 Nordeste 0 942.5 0.8 85
2019-02-07 08:00:00 0.5 8 Sudoeste 16 Sudoeste 0 942 0 86
2019-02-07 07:00:00 0.3 4 Sudoeste 18 Sudoeste 0 941.9 -0.6 83
2019-02-07 06:00:00 2.4 8 Sudoeste 10 Sur 0 941.7 -0.8 84
2019-02-07 05:00:00 0.9 5 Sudoeste 10 Este 0 942 -0.8 83
2019-02-07 04:00:00 0.4 3 Noroeste 16 Nordeste 0 942.5 -0.4 80
2019-02-07 03:00:00 1.5 3 Sur 15 Oeste 0 942.5 -0.3 78
2019-02-07 02:00:00 2.4 4 Oeste 20 Oeste 0 942.8 0 74
2019-02-07 01:00:00 3.4 5 Oeste 19 Oeste 0 942.9 0.3 74
2019-02-07 00:00:00 4.4 6 Sudoeste 10 Noroeste 0 942.8 0.1 71
2019-02-06 23:00:00 5 5 Noroeste 9 Sudoeste 0 942.8 0.3 70
2019-02-06 22:00:00 6.3 8 Sudoeste 10 Oeste 0 942.6 0.3 64
2019-02-06 21:00:00 8.3 5 Noroeste 13 Norte 0 942.7 0.6 57
2019-02-06 20:00:00 11.7 7 Norte 23 Norte 0 942.5 0.2 47
2019-02-06 19:00:00 14 10 Norte 22 Norte 0 942.3 -0.4 46
2019-02-06 18:00:00 16.5 8 Sur 18 Sur 0 942.1 -1.2 40
2019-02-06 17:00:00 17.5 9 Sudeste 18 Sudeste 0 942.3 -1.9 36
2019-02-06 16:00:00 17.5 5 Sudeste 18 Noroeste 0 942.7 -2.2 35
2019-02-06 15:00:00 16.2 4 Nordeste 17 Oeste 0 943.3 -2.3 38
2019-02-06 14:00:00 15.8 4 Sur 13 Este 0 944.2 -1.6 39
2019-02-06 13:00:00 14.5 5 Sudeste 20 Este 0 944.9 -0.8 43
2019-02-06 12:00:00 12.6 5 Sudeste 19 Este 0 945.6 0 47
2019-02-06 11:00:00 8 4 Sudeste 17 Oeste 0 945.8 0.5 67
2019-02-06 10:00:00 2 2 Noroeste 13 Noroeste 0 945.7 0.6 81
2019-02-06 09:00:00 -2.3 3 Oeste 16 Oeste 0 945.6 0.3 86
2019-02-06 08:00:00 -2.3 4 Noroeste 16 Oeste 0 945.3 -0.2 86
2019-02-06 07:00:00 -1.4 3 Oeste 16 Oeste 0 945.1 -0.8 83
2019-02-06 06:00:00 -0.5 2 Sur 13 Sudoeste 0 945.3 -0.7 82
2019-02-06 05:00:00 -0.7 3 Este 16 Oeste 0 945.5 -0.9 82
2019-02-06 04:00:00 -0.1 4 Oeste 17 Oeste 0 945.9 -0.6 81
2019-02-06 03:00:00 0.1 6 Oeste 14 Oeste 0 946 -0.6 80
2019-02-06 02:00:00 1.1 4 Sudoeste 11 Sudoeste 0 946.4 -0.2 75
2019-02-06 01:00:00 2.5 8 Sudoeste 12 Sudoeste 0 946.5 0.1 76
2019-02-06 00:00:00 2.8 5 Sudoeste 23 Oeste 0 946.6 0.4 68
2019-02-05 23:00:00 3.7 9 Oeste 23 Oeste 0 946.6 0.6 69
2019-02-05 22:00:00 4.7 7 Oeste 12 Oeste 0 946.4 0.5 63
2019-02-05 21:00:00 6.3 6 Oeste 10 Norte 0 946.2 0.5 58
2019-02-05 20:00:00 9.9 7 Norte 15 Norte 0 946 0 50
2019-02-05 19:00:00 12.4 9 Norte 21 Norte 0 945.9 -0.1 42
2019-02-05 18:00:00 14.6 11 Noroeste 24 Noroeste 0 945.7 -1.1 37
2019-02-05 17:00:00 15.1 9 Noroeste 21 Noroeste 0 946 -1.4 36
2019-02-05 16:00:00 14.4 7 Noroeste 19 Noroeste 0 946 -2.1 38
2019-02-05 15:00:00 13.7 10 Norte 19 Noroeste 0 946.8 -1.5 40
2019-02-05 14:00:00 12.8 7 Noroeste 19 Nordeste 0 947.4 -0.9 41
2019-02-05 13:00:00 11 5 Norte 20 Nordeste 0 948.1 0.2 42
2019-02-05 12:00:00 9.1 5 Noroeste 21 Oeste 0 948.3 0.9 47
2019-02-05 11:00:00 5.9 8 Noroeste 22 Oeste 0 948.3 1.4 56
2019-02-05 10:00:00 1.1 4 Oeste 17 Oeste 0 947.9 1 74
2019-02-05 09:00:00 -3.1 4 Oeste 10 Oeste 0 947.4 0.6 79
2019-02-05 08:00:00 -3.2 7 Sudoeste 10 Sudoeste 0 946.9 0.3 82
2019-02-05 07:00:00 -3.5 4 Oeste 10 Norte 0 946.9 0 80
2019-02-05 06:00:00 -2.9 3 Oeste 10 Este 0 946.8 -0.1 78
2019-02-05 05:00:00 -1.9 0 Calma 15 Nordeste 0 946.6 -0.5 74
2019-02-05 04:00:00 -2.3 0 Calma 10 Nordeste 0 946.9 -0.5 76
2019-02-05 03:00:00 -2.4 6 Oeste 10 Oeste 0 946.9 -0.3 74
2019-02-05 02:00:00 -1.4 4 Oeste 11 Oeste 0 947.1 -0.1 72
2019-02-05 01:00:00 -1.3 6 Oeste 9 Oeste 0 947.4 0.3 72
2019-02-05 00:00:00 0.2 5 Sudoeste 9 Oeste 0 947.2 0.5 66
2019-02-04 23:00:00 0.6 5 Sudoeste 17 Oeste 0 947.2 0.8 62
2019-02-04 22:00:00 1.8 6 Sudoeste 18 Oeste 0 947.1 1.2 56
2019-02-04 21:00:00 2.8 4 Oeste 18 Oeste 0 946.7 0.9 51
2019-02-04 20:00:00 6.2 3 Nordeste 9 Nordeste 0 946.4 0.5 41
2019-02-04 19:00:00 8.8 5 Este 14 Noroeste 0 945.9 0 33
2019-02-04 18:00:00 11 5 Norte 15 Noroeste 0 945.8 -0.4 27
2019-02-04 17:00:00 11.5 6 Norte 22 Norte 0 945.9 -0.7 25
2019-02-04 16:00:00 11.1 8 Norte 30 Norte 0 945.9 -1.3 25
2019-02-04 15:00:00 10.2 5 Noroeste 23 Oeste 0 946.2 -1.5 32
2019-02-04 14:00:00 8.1 7 Noroeste 23 Oeste 0 946.6 -1 38
2019-02-04 13:00:00 7.8 8 Oeste 24 Noroeste 0 947.2 -0.3 39
2019-02-04 12:00:00 5.5 9 Norte 21 Oeste 0 947.7 0.6 46
2019-02-04 11:00:00 2.8 4 Noroeste 17 Oeste 0 947.6 0.6 63
2019-02-04 10:00:00 -2.2 3 Oeste 9 Norte 0 947.5 0.5 81
2019-02-04 09:00:00 -5.8 2 Sur 9 Sudoeste 0 947.1 0.2 82
2019-02-04 08:00:00 -5.8 2 Sudoeste 8 Oeste 0 947 -0.1 82
2019-02-04 07:00:00 -5.6 6 Noroeste 9 Sudoeste 0 947 -0.2 81
2019-02-04 06:00:00 -4.4 4 Sur 11 Oeste 0 946.9 -0.4 80
2019-02-04 05:00:00 -4.4 6 Oeste 14 Oeste 0 947.1 -0.1 77
2019-02-04 04:00:00 -2.9 10 Oeste 19 Oeste 0 947.2 0.1 75
2019-02-04 03:00:00 -1.9 10 Oeste 20 Oeste 0 947.3 0.3 73
2019-02-04 02:00:00 -2.6 9 Sudoeste 16 Oeste 0 947.2 0.5 75
2019-02-04 01:00:00 -2.4 6 Oeste 16 Oeste 0 947.1 1.4 73
2019-02-04 00:00:00 -2.6 11 Oeste 15 Oeste 0 947 2 71
2019-02-03 23:00:00 -0.9 8 Noroeste 17 Norte 0 946.7 2.2 65
2019-02-03 22:00:00 -0.7 9 Noroeste 17 Noroeste 0 945.7 1.8 62
2019-02-03 21:00:00 0.7 11 Noroeste 18 Norte 0 945 1.2 55
2019-02-03 20:00:00 1.5 10 Noroeste 16 Noroeste 0 944.5 0.7 50
2019-02-03 19:00:00 4.8 10 Noroeste 24 Noroeste 0 943.9 0.1 41
2019-02-03 18:00:00 7.1 19 Noroeste 36 Norte 0 943.8 0.1 33
2019-02-03 17:00:00 7.7 19 Norte 38 Norte 0 943.8 -0.2 31
2019-02-03 16:00:00 8 23 Norte 41 Norte 0 943.8 -0.2 30
2019-02-03 15:00:00 8 20 Noroeste 41 Noroeste 0 943.7 -0.3 28
2019-02-03 14:00:00 7.1 19 Noroeste 54 Noroeste 0 944 0.3 35
2019-02-03 13:00:00 6.2 23 Noroeste 34 Noroeste 0 944 0.5 42
2019-02-03 12:00:00 4.9 21 Noroeste 33 Noroeste 0 944 1.1 48
2019-02-03 11:00:00 3.2 22 Noroeste 34 Noroeste 0 943.7 2.2 56
2019-02-03 10:00:00 0.6 14 Oeste 19 Oeste 0 943.5 2.8 72
2019-02-03 09:00:00 -2.9 10 Noroeste 16 Noroeste 0 942.9 2.5 79
2019-02-03 08:00:00 -2.3 10 Noroeste 26 Noroeste 0 941.5 1.4 77
2019-02-03 07:00:00 -1.8 16 Noroeste 21 Noroeste 0 940.7 1.1 77
2019-02-03 06:00:00 -1.4 15 Noroeste 26 Oeste 0 940.4 1.3 74
2019-02-03 05:00:00 -1.4 16 Noroeste 22 Noroeste 0 940.1 1.5 76
2019-02-03 04:00:00 -1.2 14 Noroeste 21 Oeste 0 939.6 1.2 71
2019-02-03 03:00:00 -0.6 13 Oeste 26 Oeste 0 939.1 1.7 69
2019-02-03 02:00:00 -0.4 20 Oeste 30 Oeste 0 938.6 1.6 68
2019-02-03 01:00:00 -0.7 6 Oeste 21 Oeste 0 938.4 1.5 69
2019-02-03 00:00:00 0.3 14 Oeste 32 Noroeste 0 937.4 0.8 67
2019-02-02 23:00:00 1.2 19 Noroeste 31 Noroeste 0 937 1.2 63
2019-02-02 22:00:00 1.3 20 Noroeste 28 Noroeste 0 936.9 2.1 65
2019-02-02 21:00:00 1.9 14 Noroeste 30 Noroeste 0 936.6 2.9 62
2019-02-02 20:00:00 3.7 19 Noroeste 31 Noroeste 0 935.8 3 56
2019-02-02 19:00:00 5 27 Norte 57 Norte 0 934.8 2.8 55
2019-02-02 18:00:00 6.3 31 Noroeste 53 Noroeste 0 933.7 2.3 44
2019-02-02 17:00:00 7.5 35 Noroeste 60 Noroeste 0 932.8 1.9 37
2019-02-02 16:00:00 6.8 34 Noroeste 55 Noroeste 0 932 1.6 40
2019-02-02 15:00:00 8 37 Noroeste 55 Noroeste 0 931.4 1.6 38
2019-02-02 14:00:00 7.8 35 Noroeste 54 Noroeste 0 930.9 -- 38
2019-02-02 13:00:00 7.6 34 Noroeste 53 Noroeste 0 930.4 -- 40
2019-02-02 12:00:00 6.5 37 Noroeste -- -- -- 929.8 -- 46
2019-02-02 11:00:00 -- -- -- -- -- -- -- -- --
2019-02-02 10:00:00 -- -- -- -- -- -- -- -- --
2019-02-02 09:00:00 -- -- -- -- -- -- -- -- --
2019-02-02 08:00:00 -- -- -- -- -- -- -- -- --
2019-02-02 07:00:00 -- -- -- -- -- -- -- -- --
2019-02-02 06:00:00 -- -- -- -- -- -- -- -- --
2019-02-02 05:00:00 -- -- -- -- -- -- -- -- --
2019-02-02 04:00:00 -- -- -- -- -- -- -- -- --
2019-02-02 03:00:00 -- -- -- -- -- -- -- -- --
2019-02-02 02:00:00 -- -- -- -- -- -- -- -- --
2019-02-02 01:00:00 -- -- -- -- -- -- -- -- --
2019-02-02 00:00:00 -- -- -- -- -- -- -- -- --
2019-02-01 23:00:00 -- -- -- -- -- -- -- -- --
2019-02-01 22:00:00 -- -- -- -- -- -- -- -- --
2019-02-01 21:00:00 -- -- -- -- -- -- -- -- --
2019-02-01 20:00:00 -- -- -- -- -- -- -- -- --
2019-02-01 19:00:00 -- -- -- -- -- -- -- -- --
2019-02-01 18:00:00 -- -- -- -- -- -- -- -- --
2019-02-01 17:00:00 -- -- -- -- -- -- -- -- --
2019-02-01 16:00:00 -- -- -- -- -- -- -- -- --
2019-02-01 15:00:00 -- -- -- -- -- -- -- -- --
2019-02-01 14:00:00 -- -- -- -- -- -- -- -- --
2019-02-01 13:00:00 -- -- -- -- -- -- -- -- --
2019-02-01 12:00:00 -- -- -- -- -- -- -- -- --
2019-02-01 11:00:00 -- -- -- -- -- -- -- -- --
2019-02-01 10:00:00 -- -- -- -- -- -- -- -- --
2019-02-01 09:00:00 -- -- -- -- -- -- -- -- --
2019-02-01 08:00:00 -- -- -- -- -- -- -- -- --
2019-02-01 07:00:00 -- -- -- -- -- -- -- -- --
2019-02-01 06:00:00 -- -- -- -- -- -- -- -- --
2019-02-01 05:00:00 -- -- -- -- -- -- -- -- --
2019-02-01 04:00:00 10.1 38 Sudoeste -- -- 0 915.9 -3.4 84
2019-02-01 03:00:00 10.2 -- -- -- -- 0 917.2 -2.7 83
2019-02-01 02:00:00 9.9 -- -- -- -- 0.2 918.4 -3.1 87
2019-02-01 01:00:00 9.6 -- -- -- -- 0 919.3 -2.7 87
2019-02-01 00:00:00 9.9 33 Sudoeste 61 Sur 0 919.9 -2.6 84
2019-01-31 23:00:00 9.4 27 Sudoeste 53 Sudoeste 0 921.5 -1.4 85
2019-01-31 22:00:00 9.7 21 Sudoeste 65 Sudoeste 0 922 -1.1 81
2019-01-31 21:00:00 10.4 36 Sudoeste 65 Sudoeste 0.2 922.5 -1 82
2019-01-31 20:00:00 10.5 23 Sudoeste 51 Sudoeste 0 922.9 -1 86
2019-01-31 19:00:00 10.8 20 Sudoeste 47 Sudoeste 0 923.1 -1.2 84
2019-01-31 18:00:00 11.1 27 Sudoeste 49 Sudoeste 0 923.5 -0.4 85
2019-01-31 17:00:00 12.3 23 Sudoeste 59 Oeste 0 923.9 -0.5 74
2019-01-31 16:00:00 13 35 Oeste 67 Oeste 0 924.3 -0.7 67
2019-01-31 15:00:00 14.1 46 Oeste 83 Oeste 0 923.9 -2.4 60
2019-01-31 14:00:00 13.7 40 Sudoeste 64 Sudoeste 0 924.4 -1.6 65
2019-01-31 13:00:00 12.7 41 Oeste 65 Sudoeste 0 925 -0.9 68
2019-01-31 12:00:00 11.4 27 Oeste 50 Oeste 0 926.3 1.4 73
2019-01-31 11:00:00 10.4 24 Sudoeste 59 Oeste 0 926 1.1 80
2019-01-31 10:00:00 10.1 28 Oeste 46 Oeste 0 925.9 1 80
2019-01-31 09:00:00 9.4 23 Sudoeste 40 Sudoeste 0 924.9 -0.2 87
2019-01-31 08:00:00 9.5 28 Sudoeste 47 Sudoeste 0 924.9 -0.3 86
2019-01-31 07:00:00 9.5 22 Sudoeste 43 Oeste 0 924.9 -0.8 86
2019-01-31 06:00:00 9.5 23 Sudoeste 40 Sudoeste 0 925.1 -0.9 86
2019-01-31 05:00:00 8.9 21 Sudoeste 43 Oeste 0 925.2 -1.3 86
2019-01-31 04:00:00 8.6 21 Sudoeste 46 Sudoeste 0.2 925.7 -1.4 86
2019-01-31 03:00:00 8.7 22 Sudoeste 42 Sudoeste 0 926 -1.6 85
2019-01-31 02:00:00 8.2 25 Sudoeste 40 Sudoeste 0 926.5 -1.5 87
2019-01-31 01:00:00 8 25 Sudoeste 43 Sudoeste 0 927.1 -1.8 86
2019-01-31 00:00:00 7.6 20 Sudoeste 39 Sudoeste 0 927.6 -1.9 86
2019-01-30 23:00:00 7 26 Sudoeste 40 Sudoeste 0.2 928 -2 87
2019-01-30 22:00:00 6.7 22 Sudoeste 38 Sudoeste 0.4 928.9 -1.1 87
2019-01-30 21:00:00 6.7 19 Sudoeste 34 Sudoeste 0 929.5 -0.7 85
2019-01-30 20:00:00 6.8 21 Sudoeste 37 Sudoeste 0 930 -0.3 81
2019-01-30 19:00:00 7.6 24 Sudoeste 37 Sudoeste 0 930 -0.6 71
2019-01-30 18:00:00 9.5 19 Oeste 39 Oeste 0 930.2 -1.1 45
2019-01-30 17:00:00 9.9 22 Oeste 43 Oeste 0 930.3 -1.7 37
2019-01-30 16:00:00 10.2 18 Oeste 34 Oeste 0 930.6 -2.4 43
2019-01-30 15:00:00 10.1 19 Oeste 33 Oeste 0 931.3 -2.4 44
2019-01-30 14:00:00 9.7 16 Oeste 27 Oeste 0 932 -1.4 41
2019-01-30 13:00:00 9 18 Noroeste 30 Noroeste 0 933 -0.2 47
2019-01-30 12:00:00 7.3 20 Noroeste 31 Noroeste 0 933.7 1.4 58
2019-01-30 11:00:00 6.5 13 Noroeste 25 Oeste 0 933.4 1.4 67
2019-01-30 10:00:00 4.6 12 Oeste 18 Oeste 0 933.2 1.4 77
2019-01-30 09:00:00 2.4 12 Noroeste 17 Oeste 0 932.3 0.3 83
2019-01-30 08:00:00 3.7 8 Oeste 19 Noroeste 0 932 0.1 80
2019-01-30 07:00:00 4.9 7 Norte 22 Norte 0 931.8 -0.6 81
2019-01-30 06:00:00 5.2 4 Noroeste 23 Oeste 0 932 -0.1 85
2019-01-30 05:00:00 5.7 11 Oeste 26 Oeste 0 931.9 -0.6 84
2019-01-30 04:00:00 6 13 Noroeste 28 Oeste 0 932.4 -0.2 84
2019-01-30 03:00:00 5.7 13 Oeste 24 Oeste 0 932.1 -0.1 83
2019-01-30 02:00:00 5.8 9 Oeste 24 Oeste 0 932.5 0 82
2019-01-30 01:00:00 6.6 4 Oeste 28 Oeste 0 932.6 0 78
2019-01-30 00:00:00 6.9 17 Oeste 27 Oeste 0 932.2 0 80
2019-01-29 23:00:00 7.4 19 Oeste 36 Sudoeste 0 932.5 0.8 80
2019-01-29 22:00:00 9 24 Oeste 42 Oeste 0 932.6 1.1 74
2019-01-29 21:00:00 9 30 Oeste 48 Oeste 0 932.2 0.6 74
2019-01-29 20:00:00 8.7 25 Oeste 48 Sudoeste 0 931.7 -0.6 71
2019-01-29 19:00:00 8.7 19 Oeste 45 Oeste 0 931.5 -1.1 72
2019-01-29 18:00:00 9.5 30 Oeste 52 Oeste 0 931.6 -1.3 64
2019-01-29 17:00:00 10.2 35 Oeste 57 Oeste 0 932.3 -1.2 59
2019-01-29 16:00:00 10.6 38 Oeste 66 Oeste 0 932.6 -2.2 56
2019-01-29 15:00:00 10.4 34 Oeste 49 Oeste 0 932.9 -2.8 58
2019-01-29 14:00:00 9.8 18 Sudoeste 38 Sudoeste 0 933.5 -2.5 61
2019-01-29 13:00:00 9.4 18 Sudoeste 33 Sudoeste 0 934.8 -0.7 63
2019-01-29 12:00:00 7.8 15 Sudoeste 28 Sudoeste 0 935.7 -0.3 72
2019-01-29 11:00:00 6.6 18 Sudoeste 29 Sudoeste 0 936 -0.4 78
2019-01-29 10:00:00 3.1 12 Sudoeste 18 Sudoeste 0 935.5 -0.7 90
2019-01-29 09:00:00 1.6 11 Sudoeste 20 Oeste 0 936 -0.6 90
2019-01-29 08:00:00 2 13 Oeste 23 Oeste 0 936.4 -0.6 90
2019-01-29 07:00:00 1.6 11 Oeste 19 Oeste 0 936.2 -0.6 87
2019-01-29 06:00:00 1.4 9 Sudoeste 14 Sudoeste 0 936.6 -0.3 85
2019-01-29 05:00:00 1.7 10 Oeste 14 Oeste 0 937 0 82
2019-01-29 04:00:00 2.2 8 Sudoeste 17 Oeste 0 936.8 -0.2 83
2019-01-29 03:00:00 2.5 10 Oeste 21 Noroeste 0 936.9 -0.3 81
2019-01-29 02:00:00 3.6 6 Este 21 Oeste 0 937 -0.7 78
2019-01-29 01:00:00 5 16 Oeste 29 Noroeste 0 937 -0.2 75
2019-01-29 00:00:00 5.7 4 Sudeste 23 Noroeste 0 937.2 0.2 74
2019-01-28 23:00:00 7.1 5 Oeste 20 Oeste 0 937.7 1.2 69
2019-01-28 22:00:00 6.8 4 Norte 18 Oeste 0 937.2 1.2 71
2019-01-28 21:00:00 7.8 11 Oeste 35 Oeste 0 937 1.4 68
2019-01-28 20:00:00 8.8 24 Oeste 40 Oeste 0 936.5 1.2 65
2019-01-28 19:00:00 10.2 24 Oeste 40 Oeste 0 936 0.9 56
2019-01-28 18:00:00 11.6 28 Oeste 45 Oeste 0 935.6 0.4 48
2019-01-28 17:00:00 13 32 Oeste 47 Oeste 0 935.3 -1.1 42
2019-01-28 16:00:00 13.4 30 Oeste 44 Oeste 0 935.1 -1.6 36
2019-01-28 15:00:00 13.1 27 Oeste 44 Oeste 0 935.2 -2.2 35
2019-01-28 14:00:00 13.1 22 Oeste 42 Oeste 0 936.4 -1.1 32
2019-01-28 13:00:00 11.7 22 Oeste 37 Oeste 0 936.7 -0.4 38
2019-01-28 12:00:00 9.9 20 Oeste 29 Oeste 0 937.4 0.6 43
2019-01-28 11:00:00 6.9 9 Oeste 26 Oeste 0 937.5 0.3 56
2019-01-28 10:00:00 2.8 9 Oeste 24 Sudoeste 0 937.1 -0.4 66
2019-01-28 09:00:00 0.6 13 Sudoeste 20 Sudoeste 0 936.8 -0.8 72
2019-01-28 08:00:00 -0.8 10 Sudoeste 14 Sudoeste 0 937.2 -0.3 74
2019-01-28 07:00:00 -2.1 6 Oeste 14 Oeste 0 937.5 0.2 76
2019-01-28 06:00:00 -1.2 0 Calma 15 Nordeste 0 937.6 0.3 74
2019-01-28 05:00:00 -0.1 10 Oeste 14 Oeste 0 937.5 -0.3 71
2019-01-28 04:00:00 -0.3 8 Sudoeste 15 Sudoeste 0 937.3 -0.5 71
2019-01-28 03:00:00 0.7 9 Sudoeste 17 Oeste 0 937.3 0.2 67
2019-01-28 02:00:00 2.8 13 Oeste 20 Oeste 0 937.8 0.8 60
2019-01-28 01:00:00 2.3 6 Sudoeste 26 Oeste 0 937.8 0.8 61
2019-01-28 00:00:00 3.4 13 Oeste 30 Noroeste 0 937.1 0.1 57
2019-01-27 23:00:00 5.9 24 Noroeste 33 Noroeste 0 937 0.7 52
2019-01-27 22:00:00 5.6 15 Noroeste 31 Noroeste 0 937 0.9 51
2019-01-27 21:00:00 4.6 7 Sudoeste 31 Noroeste 0 937 1.1 52
2019-01-27 20:00:00 6.1 22 Noroeste 31 Noroeste 0 936.3 1.1 48
2019-01-27 19:00:00 7.9 10 Noroeste 48 Noroeste 0 936.1 1.2 42
2019-01-27 18:00:00 10 30 Noroeste 54 Noroeste 0 935.9 1.3 35
2019-01-27 17:00:00 11.3 35 Noroeste 58 Noroeste 0 935.2 0.1 33
2019-01-27 16:00:00 11.5 35 Noroeste 54 Noroeste 0 934.9 -0.6 33
2019-01-27 15:00:00 11.4 31 Noroeste 51 Noroeste 0 934.6 -0.6 33
2019-01-27 14:00:00 10.8 36 Noroeste 58 Noroeste 0 935.1 0.6 37
2019-01-27 13:00:00 10.1 35 Noroeste 55 Norte 0 935.5 1.5 45
2019-01-27 12:00:00 9.9 29 Noroeste 42 Noroeste 0 935.2 1.6 50
2019-01-27 11:00:00 8.1 20 Oeste 28 Noroeste 0 934.5 1 64
2019-01-27 10:00:00 4.7 10 Oeste 17 Oeste 0 934 0.5 80
2019-01-27 09:00:00 3.4 11 Oeste 19 Sudoeste 0 933.6 -0.2 82
2019-01-27 08:00:00 2.2 11 Sudoeste 20 Sudoeste 0 933.5 -0.7 82
2019-01-27 07:00:00 2.2 11 Oeste 14 Oeste 0 933.5 -1.2 82
2019-01-27 06:00:00 3 9 Oeste 17 Sudoeste 0 933.8 -1 78
2019-01-27 05:00:00 3.2 11 Sudoeste 18 Sudoeste 0 934.2 -1.2 76
2019-01-27 04:00:00 3.3 13 Sudoeste 19 Oeste 0 934.7 -1.6 76
2019-01-27 03:00:00 2.9 8 Sudoeste 18 Sudoeste 0 934.8 -1.7 74
2019-01-27 02:00:00 3.3 12 Sudoeste 22 Sur 0 935.4 -1.4 73
2019-01-27 01:00:00 4 9 Oeste 22 Sudoeste 0 936.3 -0.4 74
2019-01-27 00:00:00 4 4 Sudoeste 13 Sudoeste 0 936.5 -0.5 69
2019-01-26 23:00:00 4.6 9 Sudoeste 25 Oeste 0 936.8 -0.2 65
2019-01-26 22:00:00 5.8 14 Oeste 18 Oeste 0 936.7 -0.2 62
2019-01-26 21:00:00 7.1 7 Sudoeste 14 Sudoeste 0 937 0 56
2019-01-26 20:00:00 9.1 9 Oeste 29 Oeste 0 937 -0.4 51
2019-01-26 19:00:00 12.2 9 Sudoeste 15 Sudoeste 0 936.9 -1 40
2019-01-26 18:00:00 14.9 5 Sudeste 14 Sur 0 937 -1.4 40
2019-01-26 17:00:00 16.5 6 Sur 14 Sudeste 0 937.4 -1.9 33
2019-01-26 16:00:00 16.4 4 Sur 14 Norte 0 937.9 -2.2 29
2019-01-26 15:00:00 16 2 Norte 14 Norte 0 938.4 -2.1 31
2019-01-26 14:00:00 14.5 2 Sudeste 9 Noroeste 0 939.3 -1.1 34
2019-01-26 13:00:00 11.8 3 Norte 14 Noroeste 0 940.1 -0.2 44
2019-01-26 12:00:00 9 10 Noroeste 24 Oeste 0 940.5 0.5 57
2019-01-26 11:00:00 5.8 9 Noroeste 21 Oeste 0 940.4 1 71
2019-01-26 10:00:00 1 3 Oeste 11 Oeste 0 940.3 0.7 83
2019-01-26 09:00:00 -2.5 6 Oeste 13 Oeste 0 940 0.2 85
2019-01-26 08:00:00 -1.7 8 Oeste 14 Oeste 0 939.4 -0.2 84
2019-01-26 07:00:00 -1.8 10 Oeste 14 Oeste 0 939.6 -0.4 82
2019-01-26 06:00:00 -0.6 13 Oeste 18 Oeste 0 939.8 -0.1 80
2019-01-26 05:00:00 -0.1 9 Oeste 13 Oeste 0 939.6 -0.4 77
2019-01-26 04:00:00 0.7 8 Oeste 14 Oeste 0 940 0.1 78
2019-01-26 03:00:00 0.6 8 Oeste 17 Oeste 0 939.9 0 74
2019-01-26 02:00:00 1.7 14 Oeste 18 Oeste 0 940 0.2 76
2019-01-26 01:00:00 3.8 7 Norte 17 Noroeste 0 939.9 0.5 67
2019-01-26 00:00:00 2.4 10 Noroeste 14 Noroeste 0 939.9 1.1 69
2019-01-25 23:00:00 4.1 8 Noroeste 22 Norte 0 939.8 1.5 63
2019-01-25 22:00:00 5.3 5 Noroeste 13 Norte 0 939.4 1.7 62
2019-01-25 21:00:00 6.6 9 Noroeste 21 Oeste 0 938.8 1.5 57
2019-01-25 20:00:00 7.8 9 Noroeste 13 Noroeste 0 938.3 1.1 54
2019-01-25 19:00:00 10.9 7 Noroeste 26 Noroeste 0 937.7 0.3 47
2019-01-25 18:00:00 14.2 18 Noroeste 35 Norte 0 937.3 -0.2 39
2019-01-25 17:00:00 15.1 19 Norte 36 Noroeste 0 937.2 -0.8 36
2019-01-25 16:00:00 15.2 19 Noroeste 42 Oeste 0 937.4 -1 37
2019-01-25 15:00:00 14.2 25 Norte 40 Norte 0 937.5 -1.1 40
2019-01-25 14:00:00 13.8 23 Noroeste 39 Noroeste 0 938 -0.1 43
2019-01-25 13:00:00 13.3 20 Norte 33 Nordeste 0 938.4 0.3 46
2019-01-25 12:00:00 11.6 19 Noroeste 30 Noroeste 0 938.6 1.2 58
2019-01-25 11:00:00 9.3 15 Noroeste 26 Oeste 0 938.1 1.3 69
2019-01-25 10:00:00 5.9 12 Oeste 22 Oeste 0 938.1 2 79
2019-01-25 09:00:00 4.4 13 Noroeste 24 Noroeste 0 937.4 1.6 80
2019-01-25 08:00:00 4.9 17 Noroeste 28 Noroeste 0 936.8 1 81
2019-01-25 07:00:00 5.1 19 Noroeste 30 Noroeste 0 936.1 0.2 82
2019-01-25 06:00:00 4 13 Oeste 22 Noroeste 0 935.8 0 84
2019-01-25 05:00:00 4.3 9 Noroeste 18 Oeste 0 935.8 0.1 83
2019-01-25 04:00:00 4.6 13 Oeste 22 Oeste 0 935.9 0.4 84
2019-01-25 03:00:00 4.4 15 Oeste 22 Oeste 0 935.8 1.1 83
2019-01-25 02:00:00 6 14 Oeste 23 Oeste 0 935.7 1.4 78
2019-01-25 01:00:00 5.3 10 Oeste 23 Oeste 0 935.5 1.3 78
2019-01-25 00:00:00 6.7 13 Oeste 19 Oeste 0 934.7 1 75
2019-01-24 23:00:00 7.7 9 Sudoeste 15 Norte 0 934.3 1.3 70
2019-01-24 22:00:00 10.6 9 Norte 31 Nordeste 0 934.2 1.7 62
2019-01-24 21:00:00 11.4 9 Norte 17 Noroeste 0 933.7 1.9 59
2019-01-24 20:00:00 12.1 9 Norte 24 Noroeste 0 933 1.8 57
2019-01-24 19:00:00 13.3 15 Noroeste 32 Noroeste 0 932.5 1.8 53
2019-01-24 18:00:00 14 19 Noroeste 45 Norte 0 931.8 1.4 50
2019-01-24 17:00:00 14.6 27 Noroeste 50 Norte 0 931.2 0.7 47
2019-01-24 16:00:00 15.7 36 Noroeste 55 Noroeste 0 930.7 0.2 44
2019-01-24 15:00:00 15.3 36 Noroeste 60 Noroeste 0 930.4 0.1 45
2019-01-24 14:00:00 15 34 Noroeste 57 Noroeste 0 930.5 0.6 46
2019-01-24 13:00:00 14.2 37 Noroeste 58 Noroeste 0 930.5 0.7 47
2019-01-24 12:00:00 13.8 35 Noroeste 56 Noroeste 0 930.3 1.1 50
2019-01-24 11:00:00 12.2 26 Noroeste 45 Noroeste 0 929.9 1.1 57
2019-01-24 10:00:00 8.9 13 Oeste 29 Oeste 0 929.8 1.2 71
2019-01-24 09:00:00 5.3 16 Oeste 22 Noroeste 0 929.2 0.9 80
2019-01-24 08:00:00 6.4 8 Oeste 22 Oeste 0 928.8 0.4 76
2019-01-24 07:00:00 5.4 16 Oeste 24 Oeste 0 928.6 0.5 79
2019-01-24 06:00:00 5.5 7 Oeste 21 Oeste 0 928.3 -0.1 78
2019-01-24 05:00:00 6.6 20 Oeste 29 Oeste 0 928.4 0.2 76
2019-01-24 04:00:00 7 12 Oeste 21 Sudoeste 0 928.1 -0.5 73
2019-01-24 03:00:00 8.3 11 Oeste 36 Oeste 0 928.4 0.5 68
2019-01-24 02:00:00 8.5 24 Oeste 37 Oeste 0 928.2 0.3 68
2019-01-24 01:00:00 8.8 22 Oeste 45 Oeste 0 928.6 0.6 66
2019-01-24 00:00:00 9.1 27 Oeste 40 Oeste 0 927.9 -0.5 64